Satellite Precipitation Estimates (TXUS20 KWBC)
Issued by NWS

Home | Current Version | Previous Version | Text Only | Print | Product List | Glossary On
Versions: 1 2
000
SPTD31 TTPP 261929
SPECI
TTPP 261927Z 09016KT 9999 VCSH SCT016 SCT040 28/22 Q1012 NOSIG RMK
SHWRS-E,NE,N,NW SMOKE-WSW,SE=



USA.gov is the U.S. government's official web portal to all federal, state and local government web resources and services.